sensor_id;sensor_type;location;lat;lon;timestamp;P1;durP1;ratioP1;P2;durP2;ratioP2
8474;SDS011;4274;52.012;8.448;2023-10-13T00:01:55;115.67;;;30.80;;
8474;SDS011;4274;52.012;8.448;2023-10-13T00:04:24;113.73;;;29.30;;
8474;SDS011;4274;52.012;8.448;2023-10-13T00:06:54;97.13;;;28.03;;
8474;SDS011;4274;52.012;8.448;2023-10-13T00:09:24;99.47;;;30.00;;
8474;SDS011;4274;52.012;8.448;2023-10-13T00:12:02;103.07;;;29.17;;
8474;SDS011;4274;52.012;8.448;2023-10-13T00:14:29;100.77;;;29.10;;
8474;SDS011;4274;52.012;8.448;2023-10-13T00:17:05;103.40;;;29.43;;
8474;SDS011;4274;52.012;8.448;2023-10-13T00:19:36;110.57;;;29.57;;
8474;SDS011;4274;52.012;8.448;2023-10-13T00:22:04;113.17;;;29.27;;
8474;SDS011;4274;52.012;8.448;2023-10-13T00:24:40;100.53;;;29.10;;
8474;SDS011;4274;52.012;8.448;2023-10-13T00:27:17;101.80;;;28.80;;
8474;SDS011;4274;52.012;8.448;2023-10-13T00:29:52;110.50;;;29.13;;
8474;SDS011;4274;52.012;8.448;2023-10-13T00:32:38;92.07;;;28.87;;
8474;SDS011;4274;52.012;8.448;2023-10-13T00:35:05;98.20;;;27.97;;
8474;SDS011;4274;52.012;8.448;2023-10-13T00:37:31;99.27;;;29.60;;
8474;SDS011;4274;52.012;8.448;2023-10-13T00:40:06;96.67;;;28.63;;
8474;SDS011;4274;52.012;8.448;2023-10-13T00:42:42;100.60;;;27.57;;
8474;SDS011;4274;52.012;8.448;2023-10-13T00:45:16;93.37;;;27.80;;
8474;SDS011;4274;52.012;8.448;2023-10-13T00:47:42;101.90;;;26.60;;
8474;SDS011;4274;52.012;8.448;2023-10-13T00:50:22;110.07;;;28.10;;
8474;SDS011;4274;52.012;8.448;2023-10-13T00:52:49;95.47;;;27.00;;
8474;SDS011;4274;52.012;8.448;2023-10-13T00:55:19;94.60;;;26.80;;
8474;SDS011;4274;52.012;8.448;2023-10-13T00:57:54;89.10;;;25.60;;
8474;SDS011;4274;52.012;8.448;2023-10-13T01:00:22;115.20;;;26.90;;
8474;SDS011;4274;52.012;8.448;2023-10-13T01:02:53;89.83;;;27.53;;
8474;SDS011;4274;52.012;8.448;2023-10-13T01:05:29;95.50;;;27.37;;
8474;SDS011;4274;52.012;8.448;2023-10-13T01:07:59;90.47;;;27.10;;
8474;SDS011;4274;52.012;8.448;2023-10-13T01:10:26;102.57;;;27.00;;
8474;SDS011;4274;52.012;8.448;2023-10-13T01:12:52;89.07;;;25.70;;
8474;SDS011;4274;52.012;8.448;2023-10-13T01:15:19;81.70;;;25.17;;
8474;SDS011;4274;52.012;8.448;2023-10-13T01:17:54;87.17;;;25.13;;
8474;SDS011;4274;52.012;8.448;2023-10-13T01:20:35;88.60;;;24.40;;
8474;SDS011;4274;52.012;8.448;2023-10-13T01:23:10;91.10;;;24.60;;
8474;SDS011;4274;52.012;8.448;2023-10-13T01:25:53;92.87;;;25.07;;
8474;SDS011;4274;52.012;8.448;2023-10-13T01:28:19;89.00;;;24.97;;
8474;SDS011;4274;52.012;8.448;2023-10-13T01:30:47;102.17;;;25.63;;
8474;SDS011;4274;52.012;8.448;2023-10-13T01:33:18;82.47;;;25.77;;
8474;SDS011;4274;52.012;8.448;2023-10-13T01:36:01;82.30;;;23.10;;
8474;SDS011;4274;52.012;8.448;2023-10-13T01:38:31;91.10;;;26.00;;
8474;SDS011;4274;52.012;8.448;2023-10-13T01:40:58;85.20;;;24.37;;
8474;SDS011;4274;52.012;8.448;2023-10-13T01:43:24;105.30;;;24.57;;
8474;SDS011;4274;52.012;8.448;2023-10-13T01:45:49;84.10;;;23.50;;
8474;SDS011;4274;52.012;8.448;2023-10-13T01:48:15;89.63;;;24.13;;
8474;SDS011;4274;52.012;8.448;2023-10-13T01:50:44;90.10;;;25.03;;
8474;SDS011;4274;52.012;8.448;2023-10-13T01:53:20;85.00;;;25.20;;
8474;SDS011;4274;52.012;8.448;2023-10-13T01:55:47;89.30;;;25.13;;
8474;SDS011;4274;52.012;8.448;2023-10-13T01:58:13;90.93;;;24.97;;
8474;SDS011;4274;52.012;8.448;2023-10-13T02:00:43;90.00;;;23.67;;
8474;SDS011;4274;52.012;8.448;2023-10-13T02:03:11;91.73;;;24.40;;
8474;SDS011;4274;52.012;8.448;2023-10-13T02:05:43;90.57;;;24.53;;
8474;SDS011;4274;52.012;8.448;2023-10-13T02:08:17;83.90;;;25.43;;
8474;SDS011;4274;52.012;8.448;2023-10-13T02:10:48;84.93;;;23.73;;
8474;SDS011;4274;52.012;8.448;2023-10-13T02:13:14;92.60;;;24.43;;
8474;SDS011;4274;52.012;8.448;2023-10-13T02:15:46;101.93;;;24.47;;
8474;SDS011;4274;52.012;8.448;2023-10-13T02:18:16;78.67;;;23.63;;
8474;SDS011;4274;52.012;8.448;2023-10-13T02:20:50;79.83;;;24.33;;
8474;SDS011;4274;52.012;8.448;2023-10-13T02:23:23;81.63;;;23.60;;
8474;SDS011;4274;52.012;8.448;2023-10-13T02:25:55;90.53;;;23.67;;
8474;SDS011;4274;52.012;8.448;2023-10-13T02:28:28;85.20;;;21.60;;
8474;SDS011;4274;52.012;8.448;2023-10-13T02:31:01;74.60;;;23.03;;
8474;SDS011;4274;52.012;8.448;2023-10-13T02:33:28;86.20;;;22.07;;
8474;SDS011;4274;52.012;8.448;2023-10-13T02:35:57;74.97;;;22.63;;
8474;SDS011;4274;52.012;8.448;2023-10-13T02:38:30;81.83;;;22.30;;
8474;SDS011;4274;52.012;8.448;2023-10-13T02:41:11;79.50;;;22.70;;
8474;SDS011;4274;52.012;8.448;2023-10-13T02:43:50;76.80;;;22.70;;
8474;SDS011;4274;52.012;8.448;2023-10-13T02:46:16;84.30;;;24.10;;
8474;SDS011;4274;52.012;8.448;2023-10-13T02:48:42;76.57;;;23.47;;
8474;SDS011;4274;52.012;8.448;2023-10-13T02:51:11;73.20;;;22.90;;
8474;SDS011;4274;52.012;8.448;2023-10-13T02:53:43;76.90;;;22.47;;
8474;SDS011;4274;52.012;8.448;2023-10-13T02:56:14;82.90;;;23.40;;
8474;SDS011;4274;52.012;8.448;2023-10-13T02:58:46;81.63;;;23.90;;
8474;SDS011;4274;52.012;8.448;2023-10-13T03:01:18;91.90;;;24.63;;
8474;SDS011;4274;52.012;8.448;2023-10-13T03:03:49;89.77;;;24.50;;
8474;SDS011;4274;52.012;8.448;2023-10-13T03:06:19;78.93;;;24.10;;
8474;SDS011;4274;52.012;8.448;2023-10-13T03:08:59;75.80;;;23.40;;
8474;SDS011;4274;52.012;8.448;2023-10-13T03:11:43;87.07;;;25.10;;
8474;SDS011;4274;52.012;8.448;2023-10-13T03:14:16;88.80;;;26.93;;
8474;SDS011;4274;52.012;8.448;2023-10-13T03:16:53;89.43;;;25.47;;
8474;SDS011;4274;52.012;8.448;2023-10-13T03:19:19;78.57;;;25.30;;
8474;SDS011;4274;52.012;8.448;2023-10-13T03:21:46;83.97;;;26.50;;
8474;SDS011;4274;52.012;8.448;2023-10-13T03:24:20;97.77;;;25.60;;
8474;SDS011;4274;52.012;8.448;2023-10-13T03:26:58;84.17;;;25.50;;
8474;SDS011;4274;52.012;8.448;2023-10-13T03:29:33;81.53;;;25.87;;
8474;SDS011;4274;52.012;8.448;2023-10-13T03:32:00;82.00;;;24.43;;
8474;SDS011;4274;52.012;8.448;2023-10-13T03:34:36;84.13;;;26.27;;
8474;SDS011;4274;52.012;8.448;2023-10-13T03:37:05;84.27;;;26.83;;
8474;SDS011;4274;52.012;8.448;2023-10-13T03:39:43;94.07;;;26.17;;
8474;SDS011;4274;52.012;8.448;2023-10-13T03:42:10;77.80;;;24.10;;
8474;SDS011;4274;52.012;8.448;2023-10-13T03:44:43;80.10;;;24.67;;
8474;SDS011;4274;52.012;8.448;2023-10-13T03:47:12;85.30;;;26.13;;
8474;SDS011;4274;52.012;8.448;2023-10-13T03:49:46;79.40;;;24.63;;
8474;SDS011;4274;52.012;8.448;2023-10-13T03:52:16;85.07;;;25.03;;
8474;SDS011;4274;52.012;8.448;2023-10-13T03:54:47;79.57;;;24.60;;
8474;SDS011;4274;52.012;8.448;2023-10-13T03:57:13;89.27;;;25.80;;
8474;SDS011;4274;52.012;8.448;2023-10-13T03:59:39;85.30;;;26.70;;
8474;SDS011;4274;52.012;8.448;2023-10-13T04:02:05;80.67;;;25.93;;
8474;SDS011;4274;52.012;8.448;2023-10-13T04:04:43;78.93;;;23.20;;
8474;SDS011;4274;52.012;8.448;2023-10-13T04:07:14;77.33;;;23.90;;
8474;SDS011;4274;52.012;8.448;2023-10-13T04:09:58;81.63;;;23.73;;
8474;SDS011;4274;52.012;8.448;2023-10-13T04:12:42;91.13;;;25.17;;
8474;SDS011;4274;52.012;8.448;2023-10-13T04:15:28;74.10;;;23.50;;
8474;SDS011;4274;52.012;8.448;2023-10-13T04:18:06;79.07;;;22.77;;
8474;SDS011;4274;52.012;8.448;2023-10-13T04:20:43;77.23;;;23.90;;
8474;SDS011;4274;52.012;8.448;2023-10-13T04:23:11;82.30;;;23.57;;
8474;SDS011;4274;52.012;8.448;2023-10-13T04:25:42;77.50;;;24.47;;
8474;SDS011;4274;52.012;8.448;2023-10-13T04:28:14;77.37;;;24.30;;
8474;SDS011;4274;52.012;8.448;2023-10-13T04:30:59;80.33;;;23.50;;
8474;SDS011;4274;52.012;8.448;2023-10-13T04:33:32;84.30;;;24.20;;
8474;SDS011;4274;52.012;8.448;2023-10-13T04:38:53;78.60;;;23.33;;
8474;SDS011;4274;52.012;8.448;2023-10-13T04:41:36;77.73;;;22.63;;
8474;SDS011;4274;52.012;8.448;2023-10-13T04:46:52;78.57;;;24.30;;
8474;SDS011;4274;52.012;8.448;2023-10-13T04:49:22;77.60;;;23.40;;
8474;SDS011;4274;52.012;8.448;2023-10-13T04:51:57;79.57;;;22.83;;
8474;SDS011;4274;52.012;8.448;2023-10-13T04:54:26;79.23;;;23.67;;
8474;SDS011;4274;52.012;8.448;2023-10-13T04:57:02;81.60;;;22.70;;
8474;SDS011;4274;52.012;8.448;2023-10-13T04:59:46;75.20;;;23.07;;
8474;SDS011;4274;52.012;8.448;2023-10-13T05:02:42;78.83;;;24.10;;
8474;SDS011;4274;52.012;8.448;2023-10-13T05:05:25;81.27;;;22.80;;
8474;SDS011;4274;52.012;8.448;2023-10-13T05:08:10;81.87;;;23.43;;
8474;SDS011;4274;52.012;8.448;2023-10-13T05:10:54;83.43;;;23.00;;
8474;SDS011;4274;52.012;8.448;2023-10-13T05:13:38;87.37;;;22.50;;
8474;SDS011;4274;52.012;8.448;2023-10-13T05:16:22;73.17;;;20.70;;
8474;SDS011;4274;52.012;8.448;2023-10-13T05:19:06;67.87;;;18.60;;
8474;SDS011;4274;52.012;8.448;2023-10-13T05:21:50;75.80;;;16.63;;
8474;SDS011;4274;52.012;8.448;2023-10-13T05:24:34;63.77;;;15.37;;
8474;SDS011;4274;52.012;8.448;2023-10-13T05:27:18;70.83;;;16.20;;
8474;SDS011;4274;52.012;8.448;2023-10-13T05:30:02;74.33;;;15.87;;
8474;SDS011;4274;52.012;8.448;2023-10-13T05:32:46;66.40;;;15.87;;
8474;SDS011;4274;52.012;8.448;2023-10-13T05:35:30;63.00;;;16.07;;
8474;SDS011;4274;52.012;8.448;2023-10-13T05:38:14;65.07;;;17.10;;
8474;SDS011;4274;52.012;8.448;2023-10-13T05:40:59;72.83;;;18.90;;
8474;SDS011;4274;52.012;8.448;2023-10-13T05:43:45;74.10;;;17.90;;
8474;SDS011;4274;52.012;8.448;2023-10-13T05:46:29;68.97;;;17.53;;
8474;SDS011;4274;52.012;8.448;2023-10-13T05:49:05;62.80;;;18.10;;
8474;SDS011;4274;52.012;8.448;2023-10-13T05:51:41;72.40;;;17.40;;
8474;SDS011;4274;52.012;8.448;2023-10-13T05:54:06;68.27;;;17.47;;
8474;SDS011;4274;52.012;8.448;2023-10-13T05:56:38;69.00;;;17.90;;
8474;SDS011;4274;52.012;8.448;2023-10-13T05:59:31;65.30;;;16.93;;
8474;SDS011;4274;52.012;8.448;2023-10-13T06:02:20;66.03;;;17.73;;
8474;SDS011;4274;52.012;8.448;2023-10-13T06:05:08;65.23;;;17.30;;
8474;SDS011;4274;52.012;8.448;2023-10-13T06:07:53;72.97;;;17.80;;
8474;SDS011;4274;52.012;8.448;2023-10-13T06:10:38;69.33;;;17.67;;
8474;SDS011;4274;52.012;8.448;2023-10-13T06:13:23;64.80;;;16.60;;
8474;SDS011;4274;52.012;8.448;2023-10-13T06:16:08;75.10;;;15.70;;
8474;SDS011;4274;52.012;8.448;2023-10-13T06:18:54;65.57;;;14.97;;
8474;SDS011;4274;52.012;8.448;2023-10-13T06:21:38;64.37;;;15.63;;
8474;SDS011;4274;52.012;8.448;2023-10-13T06:24:22;62.87;;;15.87;;
8474;SDS011;4274;52.012;8.448;2023-10-13T06:27:06;65.63;;;15.40;;
8474;SDS011;4274;52.012;8.448;2023-10-13T06:29:50;67.13;;;15.93;;
8474;SDS011;4274;52.012;8.448;2023-10-13T06:32:18;71.83;;;15.37;;
8474;SDS011;4274;52.012;8.448;2023-10-13T06:34:44;62.23;;;16.03;;
8474;SDS011;4274;52.012;8.448;2023-10-13T06:37:13;71.60;;;15.40;;
8474;SDS011;4274;52.012;8.448;2023-10-13T06:40:02;70.30;;;14.57;;
8474;SDS011;4274;52.012;8.448;2023-10-13T06:42:52;65.57;;;14.93;;
8474;SDS011;4274;52.012;8.448;2023-10-13T06:45:20;72.77;;;15.50;;
8474;SDS011;4274;52.012;8.448;2023-10-13T06:47:46;67.37;;;15.97;;
8474;SDS011;4274;52.012;8.448;2023-10-13T06:50:17;62.53;;;14.80;;
8474;SDS011;4274;52.012;8.448;2023-10-13T06:52:49;61.53;;;15.33;;
8474;SDS011;4274;52.012;8.448;2023-10-13T06:55:15;66.27;;;15.07;;
8474;SDS011;4274;52.012;8.448;2023-10-13T06:58:00;67.87;;;15.17;;
8474;SDS011;4274;52.012;8.448;2023-10-13T07:00:27;59.27;;;14.80;;
8474;SDS011;4274;52.012;8.448;2023-10-13T07:02:55;69.20;;;14.80;;
8474;SDS011;4274;52.012;8.448;2023-10-13T07:05:33;59.83;;;14.50;;
8474;SDS011;4274;52.012;8.448;2023-10-13T07:08:09;65.87;;;16.17;;
8474;SDS011;4274;52.012;8.448;2023-10-13T07:10:46;74.30;;;16.30;;
8474;SDS011;4274;52.012;8.448;2023-10-13T07:13:30;68.20;;;15.70;;
8474;SDS011;4274;52.012;8.448;2023-10-13T07:15:56;68.43;;;16.17;;
8474;SDS011;4274;52.012;8.448;2023-10-13T07:18:30;73.10;;;16.00;;
8474;SDS011;4274;52.012;8.448;2023-10-13T07:21:01;71.80;;;16.40;;
8474;SDS011;4274;52.012;8.448;2023-10-13T07:23:34;65.90;;;16.10;;
8474;SDS011;4274;52.012;8.448;2023-10-13T07:26:01;58.17;;;14.30;;
8474;SDS011;4274;52.012;8.448;2023-10-13T07:28:29;61.90;;;14.07;;
8474;SDS011;4274;52.012;8.448;2023-10-13T07:31:04;64.50;;;14.27;;
8474;SDS011;4274;52.012;8.448;2023-10-13T07:33:30;61.20;;;14.27;;
8474;SDS011;4274;52.012;8.448;2023-10-13T07:36:05;62.63;;;14.90;;
8474;SDS011;4274;52.012;8.448;2023-10-13T07:38:43;59.23;;;13.30;;
8474;SDS011;4274;52.012;8.448;2023-10-13T07:41:13;59.60;;;14.17;;
8474;SDS011;4274;52.012;8.448;2023-10-13T07:43:41;56.80;;;12.87;;
8474;SDS011;4274;52.012;8.448;2023-10-13T07:46:10;58.77;;;10.97;;
8474;SDS011;4274;52.012;8.448;2023-10-13T07:48:37;61.50;;;11.60;;
8474;SDS011;4274;52.012;8.448;2023-10-13T07:51:04;60.95;;;13.20;;
8474;SDS011;4274;52.012;8.448;2023-10-13T07:53:36;65.45;;;13.55;;
8474;SDS011;4274;52.012;8.448;2023-10-13T07:56:05;58.67;;;11.10;;
8474;SDS011;4274;52.012;8.448;2023-10-13T07:58:33;58.87;;;10.97;;
8474;SDS011;4274;52.012;8.448;2023-10-13T08:00:59;57.97;;;10.67;;
8474;SDS011;4274;52.012;8.448;2023-10-13T08:03:33;56.43;;;10.10;;
8474;SDS011;4274;52.012;8.448;2023-10-13T08:06:20;52.17;;;10.07;;
8474;SDS011;4274;52.012;8.448;2023-10-13T08:08:46;55.70;;;9.60;;
8474;SDS011;4274;52.012;8.448;2023-10-13T08:11:18;54.17;;;9.93;;
8474;SDS011;4274;52.012;8.448;2023-10-13T08:13:59;53.57;;;9.20;;
8474;SDS011;4274;52.012;8.448;2023-10-13T08:16:39;53.17;;;9.57;;
8474;SDS011;4274;52.012;8.448;2023-10-13T08:19:25;50.53;;;8.90;;
8474;SDS011;4274;52.012;8.448;2023-10-13T08:21:52;49.83;;;9.10;;
8474;SDS011;4274;52.012;8.448;2023-10-13T08:24:39;57.93;;;9.90;;
8474;SDS011;4274;52.012;8.448;2023-10-13T08:27:05;54.67;;;8.53;;
8474;SDS011;4274;52.012;8.448;2023-10-13T08:29:44;51.03;;;8.90;;
8474;SDS011;4274;52.012;8.448;2023-10-13T08:32:26;52.13;;;8.10;;
8474;SDS011;4274;52.012;8.448;2023-10-13T08:34:53;48.17;;;7.17;;
8474;SDS011;4274;52.012;8.448;2023-10-13T08:37:19;57.23;;;9.27;;
8474;SDS011;4274;52.012;8.448;2023-10-13T08:39:46;49.83;;;7.70;;
8474;SDS011;4274;52.012;8.448;2023-10-13T08:45:08;52.57;;;8.40;;
8474;SDS011;4274;52.012;8.448;2023-10-13T08:47:53;47.77;;;7.90;;
8474;SDS011;4274;52.012;8.448;2023-10-13T08:50:32;47.80;;;7.07;;
8474;SDS011;4274;52.012;8.448;2023-10-13T08:56:05;52.90;;;7.73;;
8474;SDS011;4274;52.012;8.448;2023-10-13T08:58:40;48.70;;;6.90;;
8474;SDS011;4274;52.012;8.448;2023-10-13T09:04:21;46.30;;;7.23;;
8474;SDS011;4274;52.012;8.448;2023-10-13T09:07:03;47.97;;;7.60;;
8474;SDS011;4274;52.012;8.448;2023-10-13T09:09:50;46.47;;;6.30;;
8474;SDS011;4274;52.012;8.448;2023-10-13T09:12:20;51.93;;;6.80;;
8474;SDS011;4274;52.012;8.448;2023-10-13T09:14:59;47.83;;;6.47;;
8474;SDS011;4274;52.012;8.448;2023-10-13T09:17:46;50.27;;;6.73;;
8474;SDS011;4274;52.012;8.448;2023-10-13T09:20:16;45.57;;;5.80;;
8474;SDS011;4274;52.012;8.448;2023-10-13T09:22:53;46.60;;;6.10;;
8474;SDS011;4274;52.012;8.448;2023-10-13T09:25:29;47.17;;;6.53;;
8474;SDS011;4274;52.012;8.448;2023-10-13T09:28:18;48.73;;;6.90;;
8474;SDS011;4274;52.012;8.448;2023-10-13T09:30:47;49.37;;;5.00;;
8474;SDS011;4274;52.012;8.448;2023-10-13T09:33:19;52.43;;;6.53;;
8474;SDS011;4274;52.012;8.448;2023-10-13T09:35:58;55.87;;;6.40;;
8474;SDS011;4274;52.012;8.448;2023-10-13T09:38:24;55.20;;;6.43;;
8474;SDS011;4274;52.012;8.448;2023-10-13T09:40:53;51.73;;;6.00;;
8474;SDS011;4274;52.012;8.448;2023-10-13T09:43:22;51.00;;;6.10;;
8474;SDS011;4274;52.012;8.448;2023-10-13T09:45:50;53.93;;;6.20;;
8474;SDS011;4274;52.012;8.448;2023-10-13T09:48:31;55.13;;;6.67;;
8474;SDS011;4274;52.012;8.448;2023-10-13T09:50:59;53.00;;;6.13;;
8474;SDS011;4274;52.012;8.448;2023-10-13T09:53:27;52.53;;;6.80;;
8474;SDS011;4274;52.012;8.448;2023-10-13T09:55:57;49.37;;;6.50;;
8474;SDS011;4274;52.012;8.448;2023-10-13T09:58:37;52.37;;;5.90;;
8474;SDS011;4274;52.012;8.448;2023-10-13T10:01:24;55.80;;;6.10;;
8474;SDS011;4274;52.012;8.448;2023-10-13T10:04:08;66.40;;;7.30;;
8474;SDS011;4274;52.012;8.448;2023-10-13T10:06:51;49.17;;;5.80;;
8474;SDS011;4274;52.012;8.448;2023-10-13T10:09:31;57.23;;;6.57;;
8474;SDS011;4274;52.012;8.448;2023-10-13T10:12:14;60.77;;;6.43;;
8474;SDS011;4274;52.012;8.448;2023-10-13T10:18:19;56.53;;;6.17;;
8474;SDS011;4274;52.012;8.448;2023-10-13T10:20:50;53.80;;;6.13;;
8474;SDS011;4274;52.012;8.448;2023-10-13T10:23:26;63.40;;;6.53;;
8474;SDS011;4274;52.012;8.448;2023-10-13T10:26:10;55.57;;;5.87;;
8474;SDS011;4274;52.012;8.448;2023-10-13T10:28:42;55.20;;;5.80;;
8474;SDS011;4274;52.012;8.448;2023-10-13T10:31:08;54.27;;;5.80;;
8474;SDS011;4274;52.012;8.448;2023-10-13T10:33:40;50.83;;;5.73;;
8474;SDS011;4274;52.012;8.448;2023-10-13T10:36:06;60.87;;;6.40;;
8474;SDS011;4274;52.012;8.448;2023-10-13T10:38:51;58.17;;;5.87;;
8474;SDS011;4274;52.012;8.448;2023-10-13T10:41:24;64.20;;;5.73;;
8474;SDS011;4274;52.012;8.448;2023-10-13T10:43:55;61.10;;;6.23;;
8474;SDS011;4274;52.012;8.448;2023-10-13T10:46:27;57.70;;;6.10;;
8474;SDS011;4274;52.012;8.448;2023-10-13T10:48:56;54.93;;;6.33;;
8474;SDS011;4274;52.012;8.448;2023-10-13T10:51:26;53.63;;;6.00;;
8474;SDS011;4274;52.012;8.448;2023-10-13T10:53:59;55.03;;;5.97;;
8474;SDS011;4274;52.012;8.448;2023-10-13T10:56:37;58.00;;;4.53;;
8474;SDS011;4274;52.012;8.448;2023-10-13T10:59:04;66.93;;;5.97;;
8474;SDS011;4274;52.012;8.448;2023-10-13T11:01:32;65.13;;;6.17;;
8474;SDS011;4274;52.012;8.448;2023-10-13T11:04:08;58.70;;;6.33;;
8474;SDS011;4274;52.012;8.448;2023-10-13T11:06:55;63.50;;;7.00;;
8474;SDS011;4274;52.012;8.448;2023-10-13T11:09:23;55.33;;;5.27;;
8474;SDS011;4274;52.012;8.448;2023-10-13T11:11:52;59.70;;;5.47;;
8474;SDS011;4274;52.012;8.448;2023-10-13T11:14:22;59.83;;;4.90;;
8474;SDS011;4274;52.012;8.448;2023-10-13T11:16:52;58.57;;;5.17;;
8474;SDS011;4274;52.012;8.448;2023-10-13T11:19:35;62.67;;;5.43;;
8474;SDS011;4274;52.012;8.448;2023-10-13T11:22:12;59.00;;;5.30;;
8474;SDS011;4274;52.012;8.448;2023-10-13T11:24:55;68.63;;;5.10;;
8474;SDS011;4274;52.012;8.448;2023-10-13T11:27:27;63.03;;;5.20;;
8474;SDS011;4274;52.012;8.448;2023-10-13T11:30:09;63.60;;;5.70;;
8474;SDS011;4274;52.012;8.448;2023-10-13T11:32:39;55.30;;;5.47;;
8474;SDS011;4274;52.012;8.448;2023-10-13T11:35:07;61.27;;;5.90;;
8474;SDS011;4274;52.012;8.448;2023-10-13T11:37:48;64.03;;;5.90;;
8474;SDS011;4274;52.012;8.448;2023-10-13T11:40:22;62.90;;;5.40;;
8474;SDS011;4274;52.012;8.448;2023-10-13T11:43:08;61.83;;;6.20;;
8474;SDS011;4274;52.012;8.448;2023-10-13T11:45:40;54.50;;;6.00;;
8474;SDS011;4274;52.012;8.448;2023-10-13T11:48:25;67.00;;;5.50;;
8474;SDS011;4274;52.012;8.448;2023-10-13T11:51:01;66.00;;;5.77;;
8474;SDS011;4274;52.012;8.448;2023-10-13T11:53:34;58.00;;;5.70;;
8474;SDS011;4274;52.012;8.448;2023-10-13T11:56:00;62.13;;;5.77;;
8474;SDS011;4274;52.012;8.448;2023-10-13T11:58:26;65.00;;;5.67;;
8474;SDS011;4274;52.012;8.448;2023-10-13T12:00:55;50.50;;;5.63;;
8474;SDS011;4274;52.012;8.448;2023-10-13T12:06:25;63.53;;;5.63;;
8474;SDS011;4274;52.012;8.448;2023-10-13T12:08:59;62.73;;;5.70;;
8474;SDS011;4274;52.012;8.448;2023-10-13T12:11:55;64.03;;;6.67;;
8474;SDS011;4274;52.012;8.448;2023-10-13T12:14:25;60.90;;;6.23;;
8474;SDS011;4274;52.012;8.448;2023-10-13T12:17:03;56.40;;;6.10;;
8474;SDS011;4274;52.012;8.448;2023-10-13T12:19:29;62.93;;;6.43;;
8474;SDS011;4274;52.012;8.448;2023-10-13T12:21:56;57.77;;;5.33;;
8474;SDS011;4274;52.012;8.448;2023-10-13T12:24:23;62.00;;;6.20;;
8474;SDS011;4274;52.012;8.448;2023-10-13T12:27:05;57.00;;;6.67;;
8474;SDS011;4274;52.012;8.448;2023-10-13T12:29:53;54.60;;;5.63;;
8474;SDS011;4274;52.012;8.448;2023-10-13T12:32:21;59.40;;;5.63;;
8474;SDS011;4274;52.012;8.448;2023-10-13T12:34:49;65.53;;;7.40;;
8474;SDS011;4274;52.012;8.448;2023-10-13T12:37:24;78.90;;;5.63;;
8474;SDS011;4274;52.012;8.448;2023-10-13T12:42:48;58.70;;;6.00;;
8474;SDS011;4274;52.012;8.448;2023-10-13T12:45:32;65.00;;;6.10;;
8474;SDS011;4274;52.012;8.448;2023-10-13T12:48:16;71.97;;;7.03;;
8474;SDS011;4274;52.012;8.448;2023-10-13T12:51:01;69.80;;;6.43;;
8474;SDS011;4274;52.012;8.448;2023-10-13T12:53:45;59.70;;;6.83;;
8474;SDS011;4274;52.012;8.448;2023-10-13T12:56:15;60.13;;;6.23;;
8474;SDS011;4274;52.012;8.448;2023-10-13T12:58:42;63.40;;;6.17;;
8474;SDS011;4274;52.012;8.448;2023-10-13T13:01:17;54.70;;;5.70;;
8474;SDS011;4274;52.012;8.448;2023-10-13T13:03:46;62.10;;;6.00;;
8474;SDS011;4274;52.012;8.448;2023-10-13T13:06:22;58.33;;;5.63;;
8474;SDS011;4274;52.012;8.448;2023-10-13T13:08:52;55.17;;;5.20;;
8474;SDS011;4274;52.012;8.448;2023-10-13T13:11:22;68.20;;;6.37;;
8474;SDS011;4274;52.012;8.448;2023-10-13T13:13:48;59.40;;;6.33;;
8474;SDS011;4274;52.012;8.448;2023-10-13T13:16:15;53.43;;;5.23;;
8474;SDS011;4274;52.012;8.448;2023-10-13T13:18:48;55.53;;;5.67;;
8474;SDS011;4274;52.012;8.448;2023-10-13T13:21:15;56.33;;;6.03;;
8474;SDS011;4274;52.012;8.448;2023-10-13T13:23:48;56.53;;;5.43;;
8474;SDS011;4274;52.012;8.448;2023-10-13T13:26:14;58.67;;;6.47;;
8474;SDS011;4274;52.012;8.448;2023-10-13T13:28:46;62.47;;;6.43;;
8474;SDS011;4274;52.012;8.448;2023-10-13T13:31:16;69.90;;;6.30;;
8474;SDS011;4274;52.012;8.448;2023-10-13T13:33:50;56.90;;;7.00;;
8474;SDS011;4274;52.012;8.448;2023-10-13T13:36:15;57.40;;;5.67;;
8474;SDS011;4274;52.012;8.448;2023-10-13T13:38:44;56.73;;;6.27;;
8474;SDS011;4274;52.012;8.448;2023-10-13T13:41:19;58.67;;;6.50;;
8474;SDS011;4274;52.012;8.448;2023-10-13T13:43:46;56.23;;;5.67;;
8474;SDS011;4274;52.012;8.448;2023-10-13T13:46:20;61.00;;;7.53;;
8474;SDS011;4274;52.012;8.448;2023-10-13T13:48:50;63.60;;;6.83;;
8474;SDS011;4274;52.012;8.448;2023-10-13T13:51:22;59.97;;;5.90;;
8474;SDS011;4274;52.012;8.448;2023-10-13T13:53:52;59.63;;;6.17;;
8474;SDS011;4274;52.012;8.448;2023-10-13T13:56:19;61.80;;;6.57;;
8474;SDS011;4274;52.012;8.448;2023-10-13T13:58:48;62.63;;;6.43;;
8474;SDS011;4274;52.012;8.448;2023-10-13T14:01:21;56.67;;;5.47;;
8474;SDS011;4274;52.012;8.448;2023-10-13T14:03:50;66.53;;;6.17;;
8474;SDS011;4274;52.012;8.448;2023-10-13T14:06:20;64.60;;;6.80;;
8474;SDS011;4274;52.012;8.448;2023-10-13T14:08:53;71.43;;;7.30;;
8474;SDS011;4274;52.012;8.448;2023-10-13T14:11:25;74.13;;;7.20;;
8474;SDS011;4274;52.012;8.448;2023-10-13T14:14:11;57.17;;;6.53;;
8474;SDS011;4274;52.012;8.448;2023-10-13T14:16:50;58.07;;;6.60;;
8474;SDS011;4274;52.012;8.448;2023-10-13T14:19:17;60.67;;;6.17;;
8474;SDS011;4274;52.012;8.448;2023-10-13T14:21:55;59.83;;;7.27;;
8474;SDS011;4274;52.012;8.448;2023-10-13T14:24:21;61.47;;;7.90;;
8474;SDS011;4274;52.012;8.448;2023-10-13T14:27:02;64.23;;;7.17;;
8474;SDS011;4274;52.012;8.448;2023-10-13T14:29:37;61.60;;;7.33;;
8474;SDS011;4274;52.012;8.448;2023-10-13T14:32:07;57.23;;;6.33;;
8474;SDS011;4274;52.012;8.448;2023-10-13T14:34:43;55.03;;;6.03;;
8474;SDS011;4274;52.012;8.448;2023-10-13T14:37:10;52.40;;;6.10;;
8474;SDS011;4274;52.012;8.448;2023-10-13T14:39:39;55.50;;;6.10;;
8474;SDS011;4274;52.012;8.448;2023-10-13T14:42:05;53.73;;;6.00;;
8474;SDS011;4274;52.012;8.448;2023-10-13T14:44:34;63.90;;;6.80;;
8474;SDS011;4274;52.012;8.448;2023-10-13T14:47:01;66.57;;;6.27;;
8474;SDS011;4274;52.012;8.448;2023-10-13T14:49:27;61.93;;;6.43;;
8474;SDS011;4274;52.012;8.448;2023-10-13T14:51:53;74.23;;;6.37;;
8474;SDS011;4274;52.012;8.448;2023-10-13T14:54:20;56.43;;;5.73;;
8474;SDS011;4274;52.012;8.448;2023-10-13T14:56:57;59.00;;;6.40;;
8474;SDS011;4274;52.012;8.448;2023-10-13T14:59:24;66.90;;;6.50;;
8474;SDS011;4274;52.012;8.448;2023-10-13T15:01:49;59.07;;;6.27;;
8474;SDS011;4274;52.012;8.448;2023-10-13T15:04:15;57.33;;;6.40;;
8474;SDS011;4274;52.012;8.448;2023-10-13T15:06:40;71.57;;;7.73;;
8474;SDS011;4274;52.012;8.448;2023-10-13T15:09:06;58.20;;;6.03;;
8474;SDS011;4274;52.012;8.448;2023-10-13T15:11:36;59.70;;;6.93;;
8474;SDS011;4274;52.012;8.448;2023-10-13T15:14:02;64.83;;;6.67;;
8474;SDS011;4274;52.012;8.448;2023-10-13T15:16:28;65.70;;;6.40;;
8474;SDS011;4274;52.012;8.448;2023-10-13T15:18:54;60.13;;;7.00;;
8474;SDS011;4274;52.012;8.448;2023-10-13T15:21:24;62.30;;;6.60;;
8474;SDS011;4274;52.012;8.448;2023-10-13T15:23:59;56.57;;;5.93;;
8474;SDS011;4274;52.012;8.448;2023-10-13T15:26:29;57.20;;;6.80;;
8474;SDS011;4274;52.012;8.448;2023-10-13T15:28:55;79.13;;;6.90;;
8474;SDS011;4274;52.012;8.448;2023-10-13T15:31:22;63.40;;;6.00;;
8474;SDS011;4274;52.012;8.448;2023-10-13T15:33:51;55.37;;;5.60;;
8474;SDS011;4274;52.012;8.448;2023-10-13T15:36:19;71.97;;;6.80;;
8474;SDS011;4274;52.012;8.448;2023-10-13T15:38:49;58.27;;;5.80;;
8474;SDS011;4274;52.012;8.448;2023-10-13T15:41:20;65.97;;;6.63;;
8474;SDS011;4274;52.012;8.448;2023-10-13T15:43:49;60.47;;;6.50;;
8474;SDS011;4274;52.012;8.448;2023-10-13T15:46:16;69.20;;;6.70;;
8474;SDS011;4274;52.012;8.448;2023-10-13T15:48:43;58.20;;;5.23;;
8474;SDS011;4274;52.012;8.448;2023-10-13T15:51:11;57.00;;;6.60;;
8474;SDS011;4274;52.012;8.448;2023-10-13T15:53:41;56.73;;;6.00;;
8474;SDS011;4274;52.012;8.448;2023-10-13T15:56:08;57.00;;;7.57;;